createdAt,value
2023-02-03T00:03:16.360Z,2.10
2023-02-03T00:08:47.446Z,2.20
2023-02-03T00:14:18.368Z,2.13
2023-02-03T00:19:50.285Z,2.17
2023-02-03T00:25:21.885Z,2.33
2023-02-03T00:30:54.312Z,1.88
2023-02-03T00:36:25.967Z,1.83
2023-02-03T00:41:56.994Z,2.08
2023-02-03T00:47:27.914Z,2.30
2023-02-03T00:52:59.212Z,2.38
2023-02-03T00:58:30.254Z,1.95
2023-02-03T01:04:01.551Z,1.80
2023-02-03T01:09:37.053Z,1.90
2023-02-03T01:15:08.370Z,2.13
2023-02-03T01:20:39.354Z,2.30
2023-02-03T01:26:13.116Z,2.10
2023-02-03T01:31:44.276Z,2.10
2023-02-03T01:37:17.369Z,2.13
2023-02-03T01:42:48.507Z,2.20
2023-02-03T01:48:19.939Z,2.20
2023-02-03T01:53:52.070Z,2.10
2023-02-03T01:59:23.926Z,2.35
2023-02-03T02:05:08.558Z,1.70
2023-02-03T02:10:39.757Z,1.80
2023-02-03T02:16:49.373Z,1.70
2023-02-03T02:22:35.331Z,1.60
2023-02-03T02:28:24.290Z,1.50
2023-02-03T02:34:20.003Z,1.80
2023-02-03T02:40:06.867Z,1.52
2023-02-03T02:45:51.436Z,1.63
2023-02-03T02:51:23.969Z,1.50
2023-02-03T02:56:57.272Z,1.50
2023-02-03T03:02:35.975Z,1.30
2023-02-03T03:08:08.771Z,1.10
2023-02-03T03:13:45.179Z,1.30
2023-02-03T03:19:19.856Z,1.10
2023-02-03T03:24:55.599Z,0.98
2023-02-03T03:30:30.075Z,0.90
2023-02-03T03:36:12.840Z,0.80
2023-02-03T03:42:13.026Z,0.77
2023-02-03T03:47:48.166Z,0.90
2023-02-03T03:53:20.818Z,0.85
2023-02-03T03:58:52.902Z,0.80
2023-02-03T04:04:25.009Z,0.70
2023-02-03T04:09:56.432Z,0.82
2023-02-03T04:15:27.960Z,0.65
2023-02-03T04:20:59.136Z,0.70
2023-02-03T04:26:30.252Z,0.60
2023-02-03T04:32:01.379Z,0.65
2023-02-03T04:37:34.168Z,0.50
2023-02-03T04:43:08.127Z,0.52
2023-02-03T04:48:39.434Z,0.70
2023-02-03T04:54:11.506Z,0.50
2023-02-03T04:59:42.906Z,0.50
2023-02-03T05:05:14.158Z,0.40
2023-02-03T05:10:45.422Z,0.50
2023-02-03T05:16:16.529Z,0.57
2023-02-03T05:21:48.139Z,0.52
2023-02-03T05:27:19.141Z,0.65
2023-02-03T05:32:50.517Z,0.60
2023-02-03T05:38:21.929Z,0.57
2023-02-03T05:43:53.143Z,0.60
2023-02-03T05:49:24.949Z,0.70
2023-02-03T05:54:56.348Z,0.90
2023-02-03T06:00:28.339Z,0.82
2023-02-03T06:05:59.657Z,0.80
2023-02-03T06:11:32.075Z,1.10
2023-02-03T06:17:03.524Z,1.17
2023-02-03T06:22:35.524Z,1.40
2023-02-03T06:28:06.618Z,1.27
2023-02-03T06:33:37.588Z,1.30
2023-02-03T06:39:08.817Z,1.73
2023-02-03T06:44:39.958Z,1.50
2023-02-03T06:50:14.723Z,1.63
2023-02-03T06:55:45.841Z,1.77
2023-02-03T07:01:16.962Z,1.85
2023-02-03T07:06:48.256Z,1.90
2023-02-03T07:12:19.314Z,2.08
2023-02-03T07:17:54.822Z,2.33
2023-02-03T07:23:25.961Z,2.10
2023-02-03T07:29:00.134Z,2.10
2023-02-03T07:34:31.427Z,2.63
2023-02-03T07:40:02.451Z,2.10
2023-02-03T07:45:34.247Z,1.95
2023-02-03T07:51:05.590Z,2.08
2023-02-03T07:56:36.967Z,1.92
2023-02-03T08:02:11.392Z,1.67
2023-02-03T08:07:42.950Z,1.90
2023-02-03T08:13:14.699Z,1.95
2023-02-03T08:18:45.834Z,1.65
2023-02-03T08:24:17.704Z,1.70
2023-02-03T08:29:49.401Z,1.60
2023-02-03T08:35:20.669Z,1.77
2023-02-03T08:40:51.709Z,1.67
2023-02-03T08:46:23.255Z,1.60
2023-02-03T08:51:55.570Z,1.58
2023-02-03T08:57:26.614Z,1.33
2023-02-03T09:02:57.981Z,1.50
2023-02-03T09:08:29.573Z,1.88
2023-02-03T09:14:00.825Z,1.70
2023-02-03T09:19:34.741Z,1.40
2023-02-03T09:25:07.586Z,1.50
2023-02-03T09:30:39.186Z,1.75
2023-02-03T09:36:11.110Z,1.67
2023-02-03T09:42:05.223Z,1.50
2023-02-03T09:47:40.029Z,1.30
2023-02-03T09:53:25.621Z,1.45
2023-02-03T09:58:57.005Z,1.45
2023-02-03T10:04:40.277Z,1.38
2023-02-03T10:10:24.829Z,1.05
2023-02-03T10:16:19.314Z,1.40
2023-02-03T10:21:55.477Z,1.33
2023-02-03T10:27:28.042Z,1.40
2023-02-03T10:33:02.828Z,1.48
2023-02-03T10:39:00.102Z,1.10
2023-02-03T10:44:36.990Z,1.33
2023-02-03T10:50:14.837Z,1.33
2023-02-03T10:55:47.107Z,1.35
2023-02-03T11:01:20.538Z,1.30
2023-02-03T11:12:33.264Z,1.20
2023-02-03T11:18:04.750Z,1.30
2023-02-03T11:23:36.223Z,1.27
2023-02-03T11:29:15.019Z,1.20
2023-02-03T11:34:58.319Z,1.20
2023-02-03T11:40:31.695Z,1.17
2023-02-03T11:46:08.010Z,1.23
2023-02-03T11:51:48.408Z,1.48
2023-02-03T11:57:24.739Z,1.20
2023-02-03T12:03:05.690Z,1.10
2023-02-03T12:08:55.533Z,1.10
2023-02-03T12:14:50.073Z,1.58
2023-02-03T12:20:25.072Z,1.38
2023-02-03T12:26:16.739Z,1.40
2023-02-03T12:32:11.999Z,1.38
2023-02-03T12:38:02.061Z,1.20
2023-02-03T12:43:40.173Z,0.90
2023-02-03T12:50:00.784Z,1.00
2023-02-03T12:56:12.276Z,1.15
2023-02-03T13:01:51.094Z,1.30
2023-02-03T13:07:33.757Z,0.95
2023-02-03T13:13:08.476Z,0.98
2023-02-03T13:18:42.975Z,1.10
2023-02-03T13:24:13.930Z,0.93
2023-02-03T13:29:47.995Z,1.00
2023-02-03T13:41:14.255Z,1.30
2023-02-03T13:46:50.422Z,1.00
2023-02-03T13:52:29.808Z,1.10
2023-02-03T13:58:01.035Z,0.93
2023-02-03T14:03:32.542Z,1.00
2023-02-03T14:09:31.214Z,0.90
2023-02-03T14:15:28.363Z,0.90
2023-02-03T14:21:13.558Z,0.75
2023-02-03T14:32:24.992Z,0.80
2023-02-03T14:38:01.934Z,0.90
2023-02-03T14:44:16.887Z,0.80
2023-02-03T14:50:19.638Z,0.90
2023-02-03T14:55:56.627Z,0.77
2023-02-03T15:01:37.028Z,0.70
2023-02-03T15:07:08.452Z,0.90
2023-02-03T15:12:42.363Z,0.75
2023-02-03T15:18:32.069Z,0.85
2023-02-03T15:36:58.299Z,0.77
2023-02-03T15:42:51.232Z,0.75
2023-02-03T15:48:28.179Z,0.65
2023-02-03T15:54:01.011Z,0.75
2023-02-03T15:59:34.437Z,0.70
2023-02-03T16:05:35.184Z,0.80
2023-02-03T16:11:28.068Z,0.80
2023-02-03T16:17:05.503Z,0.70
2023-02-03T16:22:42.201Z,0.73
2023-02-03T16:28:36.194Z,0.60
2023-02-03T16:34:35.365Z,0.70
2023-02-03T16:40:25.557Z,0.90
2023-02-03T16:46:17.257Z,0.80
2023-02-03T16:51:48.699Z,1.10
2023-02-03T16:57:19.995Z,1.10
2023-02-03T17:02:52.096Z,1.10
2023-02-03T17:08:25.388Z,0.93
2023-02-03T17:13:57.644Z,1.23
2023-02-03T17:19:29.016Z,1.38
2023-02-03T17:25:00.192Z,1.35
2023-02-03T17:30:35.490Z,1.65
2023-02-03T17:36:13.175Z,1.40
2023-02-03T17:53:22.238Z,1.30
2023-02-03T17:58:57.908Z,1.60
2023-02-03T18:04:29.333Z,1.48
2023-02-03T18:10:00.742Z,1.60
2023-02-03T18:15:33.219Z,1.52
2023-02-03T18:21:05.934Z,1.40
2023-02-03T18:26:46.989Z,1.58
2023-02-03T18:32:18.003Z,1.50
2023-02-03T18:37:48.972Z,1.67
2023-02-03T18:43:20.799Z,1.48
2023-02-03T18:48:52.199Z,1.60
2023-02-03T18:54:23.160Z,1.67
2023-02-03T18:59:54.417Z,1.83
2023-02-03T19:05:25.885Z,1.67
2023-02-03T19:10:57.364Z,2.10
2023-02-03T19:16:28.428Z,1.90
2023-02-03T19:21:59.637Z,1.92
2023-02-03T19:27:30.745Z,2.10
2023-02-03T19:33:01.818Z,1.98
2023-02-03T19:38:33.009Z,2.05
2023-02-03T19:44:06.014Z,2.05
2023-02-03T19:49:37.497Z,2.37
2023-02-03T19:55:09.109Z,2.33
2023-02-03T20:00:40.699Z,2.17
2023-02-03T20:06:11.989Z,2.03
2023-02-03T20:11:42.985Z,2.20
2023-02-03T20:17:14.143Z,2.20
2023-02-03T20:22:45.100Z,2.38
2023-02-03T20:28:17.866Z,2.50
2023-02-03T20:33:49.297Z,2.25
2023-02-03T20:39:20.685Z,2.55
2023-02-03T20:44:51.929Z,2.13
2023-02-03T20:50:31.551Z,3.15
2023-02-03T20:56:12.191Z,2.40
2023-02-03T21:01:43.810Z,2.20
2023-02-03T21:07:16.308Z,2.22
2023-02-03T21:12:48.467Z,1.90
2023-02-03T21:18:40.659Z,1.85
2023-02-03T21:24:23.878Z,2.13
2023-02-03T21:29:57.646Z,2.33
2023-02-03T21:35:28.947Z,2.10
2023-02-03T21:41:01.469Z,2.13
2023-02-03T21:46:33.368Z,2.20
2023-02-03T21:52:04.772Z,1.90
2023-02-03T21:57:36.242Z,2.33
2023-02-03T22:03:10.128Z,1.90
2023-02-03T22:08:43.823Z,2.13
2023-02-03T22:14:16.786Z,2.20
2023-02-03T22:19:48.179Z,1.90
2023-02-03T22:25:19.105Z,2.08
2023-02-03T22:30:50.164Z,2.08
2023-02-03T22:36:23.819Z,2.15
2023-02-03T22:41:55.124Z,2.00
2023-02-03T22:47:26.592Z,2.00
2023-02-03T22:52:58.035Z,1.67
2023-02-03T22:58:28.997Z,2.00
2023-02-03T23:03:59.964Z,1.98
2023-02-03T23:09:31.569Z,1.88
2023-02-03T23:15:02.674Z,2.30
2023-02-03T23:20:33.821Z,1.75
2023-02-03T23:26:05.626Z,1.63
2023-02-03T23:31:36.881Z,1.75
2023-02-03T23:37:08.069Z,1.35
2023-02-03T23:42:39.032Z,2.00
2023-02-03T23:48:10.353Z,1.42
2023-02-03T23:53:41.372Z,1.38
2023-02-03T23:59:12.597Z,1.55
